Time,TemperatureF,DewpointF,PressureIn,WindDirection,WindDirectionDegrees,WindSpeedMPH,WindSpeedGustMPH,Humidity,HourlyPrecipIn,Conditions,Clouds,dailyrainin,SolarRadiationWatts/m^2,SoftwareType,DateUTC
2013-03-31 00:02:00,37.0,33.0,-100.00,North,10,1.0,4.0,86,0.00,,,0.00,0.000000,,2013-03-31 07:02:00,
2013-03-31 00:12:00,37.0,33.0,-100.00,North,10,1.0,4.0,86,0.00,,,0.00,0.000000,,2013-03-31 07:12:00,
2013-03-31 00:22:00,37.0,33.0,-100.00,North,10,1.0,4.0,86,0.00,,,0.00,0.000000,,2013-03-31 07:22:00,
2013-03-31 00:32:00,37.0,33.0,-100.00,North,10,1.0,4.0,86,0.00,,,0.00,0.000000,,2013-03-31 07:32:00,
2013-03-31 01:02:00,39.0,34.0,-100.00,North,7,0.0,8.0,83,0.00,,,0.00,0.000000,,2013-03-31 08:02:00,
2013-03-31 01:12:00,39.0,34.0,-100.00,North,7,0.0,8.0,83,0.00,,,0.00,0.000000,,2013-03-31 08:12:00,
2013-03-31 01:22:00,39.0,34.0,-100.00,North,7,0.0,8.0,83,0.00,,,0.00,0.000000,,2013-03-31 08:22:00,
2013-03-31 01:32:00,39.0,34.0,-100.00,North,7,0.0,8.0,83,0.00,,,0.00,0.000000,,2013-03-31 08:32:00,
2013-03-31 02:01:00,34.0,31.0,-100.00,North,10,1.0,5.0,89,0.00,,,0.00,0.000000,,2013-03-31 09:01:00,
2013-03-31 02:12:00,34.0,31.0,-100.00,North,10,1.0,5.0,89,0.00,,,0.00,0.000000,,2013-03-31 09:12:00,
2013-03-31 02:22:00,34.0,31.0,-100.00,North,10,1.0,5.0,89,0.00,,,0.00,0.000000,,2013-03-31 09:22:00,
2013-03-31 02:32:00,34.0,31.0,-100.00,North,10,1.0,5.0,89,0.00,,,0.00,0.000000,,2013-03-31 09:32:00,
2013-03-31 03:03:00,34.0,31.0,-100.00,North,6,1.0,5.0,88,0.00,,,0.00,0.000000,,2013-03-31 10:03:00,
2013-03-31 03:12:00,34.0,31.0,-100.00,North,6,1.0,5.0,88,0.00,,,0.00,0.000000,,2013-03-31 10:12:00,
2013-03-31 03:23:00,34.0,31.0,-100.00,North,6,1.0,5.0,88,0.00,,,0.00,0.000000,,2013-03-31 10:23:00,
2013-03-31 03:32:00,34.0,31.0,-100.00,North,6,1.0,5.0,88,0.00,,,0.00,0.000000,,2013-03-31 10:32:00,
2013-03-31 04:02:00,39.0,33.0,-100.00,SW,216,0.0,7.0,80,0.00,,,0.00,0.000000,,2013-03-31 11:02:00,
2013-03-31 04:12:00,39.0,33.0,-100.00,SW,216,0.0,7.0,80,0.00,,,0.00,0.000000,,2013-03-31 11:12:00,
2013-03-31 04:22:00,39.0,33.0,-100.00,SW,216,0.0,7.0,80,0.00,,,0.00,0.000000,,2013-03-31 11:22:00,
2013-03-31 04:32:00,39.0,33.0,-100.00,SW,216,0.0,7.0,80,0.00,,,0.00,0.000000,,2013-03-31 11:32:00,
2013-03-31 05:02:00,37.0,30.0,-100.00,North,2,0.0,7.0,75,0.00,,,-99.99,0.000000,,2013-03-31 12:02:00,
2013-03-31 05:12:00,37.0,30.0,-100.00,North,2,0.0,7.0,75,0.00,,,-99.99,0.000000,,2013-03-31 12:12:00,
2013-03-31 05:22:00,37.0,30.0,-100.00,North,2,0.0,7.0,75,0.00,,,-99.99,0.000000,,2013-03-31 12:22:00,
2013-03-31 05:32:00,37.0,30.0,-100.00,North,2,0.0,7.0,75,0.00,,,-99.99,0.000000,,2013-03-31 12:32:00,
2013-03-31 06:02:00,37.0,31.0,-100.00,North,5,0.0,4.0,80,0.00,,,0.00,0.000000,,2013-03-31 13:02:00,
2013-03-31 06:12:00,37.0,31.0,-100.00,North,5,0.0,4.0,80,0.00,,,0.00,0.000000,,2013-03-31 13:12:00,
2013-03-31 06:22:00,37.0,31.0,-100.00,North,5,0.0,4.0,80,0.00,,,0.00,0.000000,,2013-03-31 13:22:00,
2013-03-31 06:32:00,37.0,31.0,-100.00,North,5,0.0,4.0,80,0.00,,,0.00,0.000000,,2013-03-31 13:32:00,
2013-03-31 07:02:00,35.0,32.0,-100.00,East,87,0.0,4.0,87,0.00,,,0.00,0.000000,,2013-03-31 14:02:00,
2013-03-31 07:11:00,35.0,32.0,-100.00,East,87,0.0,4.0,87,0.00,,,0.00,0.000000,,2013-03-31 14:11:00,
2013-03-31 07:22:00,35.0,32.0,-100.00,East,87,0.0,4.0,87,0.00,,,0.00,0.000000,,2013-03-31 14:22:00,
2013-03-31 07:32:00,35.0,32.0,-100.00,East,87,0.0,4.0,87,0.00,,,0.00,0.000000,,2013-03-31 14:32:00,
2013-03-31 08:02:00,40.0,38.0,-100.00,South,169,0.0,6.0,92,0.00,,,0.00,33.000000,,2013-03-31 15:02:00,
2013-03-31 08:12:00,40.0,38.0,-100.00,South,169,0.0,6.0,92,0.00,,,0.00,33.000000,,2013-03-31 15:12:00,
2013-03-31 08:22:00,40.0,38.0,-100.00,South,169,0.0,6.0,92,0.00,,,0.00,33.000000,,2013-03-31 15:22:00,
2013-03-31 08:33:00,40.0,38.0,-100.00,South,169,0.0,6.0,92,0.00,,,0.00,33.000000,,2013-03-31 15:33:00,
2013-03-31 09:03:00,43.0,36.0,-100.00,SSW,201,1.0,10.0,75,0.00,,,0.00,196.000000,,2013-03-31 16:03:00,
2013-03-31 09:13:00,43.0,36.0,-100.00,SSW,201,1.0,10.0,75,0.00,,,0.00,196.000000,,2013-03-31 16:13:00,
2013-03-31 09:22:00,43.0,36.0,-100.00,SSW,201,1.0,10.0,75,0.00,,,0.00,196.000000,,2013-03-31 16:22:00,
2013-03-31 09:32:00,43.0,36.0,-100.00,SSW,201,1.0,10.0,75,0.00,,,0.00,196.000000,,2013-03-31 16:32:00,
2013-03-31 10:02:00,50.0,34.0,-100.00,SSW,192,4.0,12.0,53,0.00,,,0.00,456.000000,,2013-03-31 17:02:00,
2013-03-31 10:12:00,50.0,34.0,-100.00,SSW,192,4.0,12.0,53,0.00,,,0.00,456.000000,,2013-03-31 17:12:00,
2013-03-31 10:22:00,50.0,34.0,-100.00,SSW,192,4.0,12.0,53,0.00,,,0.00,456.000000,,2013-03-31 17:22:00,
2013-03-31 10:32:00,50.0,34.0,-100.00,SSW,192,4.0,12.0,53,0.00,,,0.00,456.000000,,2013-03-31 17:32:00,
2013-03-31 11:02:00,51.0,29.0,-100.00,SW,218,3.0,12.0,43,0.00,,,0.00,827.000000,,2013-03-31 18:02:00,
2013-03-31 11:12:00,51.0,29.0,-100.00,SW,218,3.0,12.0,43,0.00,,,0.00,827.000000,,2013-03-31 18:12:00,
2013-03-31 11:22:00,51.0,29.0,-100.00,SW,218,3.0,12.0,43,0.00,,,0.00,827.000000,,2013-03-31 18:22:00,
2013-03-31 11:32:00,51.0,29.0,-100.00,SW,218,3.0,12.0,43,0.00,,,0.00,827.000000,,2013-03-31 18:32:00,
2013-03-31 12:03:00,52.0,30.0,-100.00,NW,306,6.0,13.0,42,0.00,,,0.00,1007.000000,,2013-03-31 19:03:00,
2013-03-31 12:12:00,52.0,30.0,-100.00,NW,306,6.0,13.0,42,0.00,,,0.00,1007.000000,,2013-03-31 19:12:00,
2013-03-31 12:22:00,52.0,30.0,-100.00,NW,306,6.0,13.0,42,0.00,,,0.00,1007.000000,,2013-03-31 19:22:00,
2013-03-31 12:32:00,52.0,30.0,-100.00,NW,306,6.0,13.0,42,0.00,,,0.00,1007.000000,,2013-03-31 19:32:00,
2013-03-31 13:02:00,54.0,28.0,-100.00,WSW,257,4.0,12.0,36,0.00,,,0.00,1119.000000,,2013-03-31 20:02:00,
2013-03-31 13:12:00,54.0,28.0,-100.00,WSW,257,4.0,12.0,36,0.00,,,0.00,1119.000000,,2013-03-31 20:12:00,
2013-03-31 13:22:00,54.0,28.0,-100.00,WSW,257,4.0,12.0,36,0.00,,,0.00,1119.000000,,2013-03-31 20:22:00,
2013-03-31 13:32:00,54.0,28.0,-100.00,WSW,257,4.0,12.0,36,0.00,,,0.00,1119.000000,,2013-03-31 20:32:00,
2013-03-31 14:02:00,51.0,31.0,-100.00,SSE,152,6.0,12.0,46,0.00,,,0.00,1144.000000,,2013-03-31 21:02:00,
2013-03-31 14:12:00,51.0,31.0,-100.00,SSE,152,6.0,12.0,46,0.00,,,0.00,1144.000000,,2013-03-31 21:12:00,
2013-03-31 14:22:00,51.0,31.0,-100.00,SSE,152,6.0,12.0,46,0.00,,,0.00,1144.000000,,2013-03-31 21:22:00,
2013-03-31 14:33:00,51.0,31.0,-100.00,SSE,152,6.0,12.0,46,0.00,,,0.00,1144.000000,,2013-03-31 21:33:00,
2013-03-31 15:03:00,50.0,33.0,-100.00,North,3,5.0,15.0,52,0.00,,,0.00,1087.000000,,2013-03-31 22:03:00,
2013-03-31 15:13:00,50.0,33.0,-100.00,North,3,5.0,15.0,52,0.00,,,0.00,1087.000000,,2013-03-31 22:13:00,
2013-03-31 15:23:00,50.0,33.0,-100.00,North,3,5.0,15.0,52,0.00,,,0.00,1087.000000,,2013-03-31 22:23:00,
2013-03-31 15:32:00,50.0,33.0,-100.00,North,3,5.0,15.0,52,0.00,,,0.00,1087.000000,,2013-03-31 22:32:00,
2013-03-31 16:02:00,52.0,35.0,-100.00,SSW,198,6.0,14.0,52,0.00,,,0.00,969.000000,,2013-03-31 23:02:00,
2013-03-31 16:12:00,52.0,35.0,-100.00,SSW,198,6.0,14.0,52,0.00,,,0.00,969.000000,,2013-03-31 23:12:00,
2013-03-31 16:22:00,52.0,35.0,-100.00,SSW,198,6.0,14.0,52,0.00,,,0.00,969.000000,,2013-03-31 23:22:00,
2013-03-31 16:32:00,52.0,35.0,-100.00,SSW,198,6.0,14.0,52,0.00,,,0.00,969.000000,,2013-03-31 23:32:00,
2013-03-31 17:02:00,47.0,29.0,-100.00,SSW,201,7.0,16.0,50,0.00,,,0.00,707.000000,,2013-04-01 00:02:00,
2013-03-31 17:12:00,47.0,29.0,-100.00,SSW,201,7.0,16.0,50,0.00,,,0.00,707.000000,,2013-04-01 00:12:00,
2013-03-31 17:22:00,47.0,29.0,-100.00,SSW,201,7.0,16.0,50,0.00,,,0.00,707.000000,,2013-04-01 00:22:00,
2013-03-31 17:31:00,47.0,29.0,-100.00,SSW,201,7.0,16.0,50,0.00,,,0.00,707.000000,,2013-04-01 00:31:00,
2013-03-31 18:02:00,44.0,33.0,-100.00,South,185,3.0,14.0,66,0.00,,,0.00,179.000000,,2013-04-01 01:02:00,
2013-03-31 18:12:00,44.0,33.0,-100.00,South,185,3.0,14.0,66,0.00,,,0.00,179.000000,,2013-04-01 01:12:00,
2013-03-31 18:22:00,44.0,33.0,-100.00,South,185,3.0,14.0,66,0.00,,,0.00,179.000000,,2013-04-01 01:22:00,
2013-03-31 18:32:00,44.0,33.0,-100.00,South,185,3.0,14.0,66,0.00,,,0.00,179.000000,,2013-04-01 01:32:00,
2013-03-31 19:02:00,43.0,34.0,-100.00,South,191,5.0,11.0,70,0.00,,,0.00,81.000000,,2013-04-01 02:02:00,
2013-03-31 19:12:00,43.0,34.0,-100.00,South,191,5.0,11.0,70,0.00,,,0.00,81.000000,,2013-04-01 02:12:00,
2013-03-31 19:22:00,43.0,34.0,-100.00,South,191,5.0,11.0,70,0.00,,,0.00,81.000000,,2013-04-01 02:22:00,
2013-03-31 19:32:00,43.0,34.0,-100.00,South,191,5.0,11.0,70,0.00,,,0.00,81.000000,,2013-04-01 02:32:00,
2013-03-31 20:02:00,39.0,32.0,-100.00,West,279,0.0,10.0,77,0.00,,,0.00,10.000000,,2013-04-01 03:02:00,
2013-03-31 20:12:00,39.0,32.0,-100.00,West,279,0.0,10.0,77,0.00,,,0.00,10.000000,,2013-04-01 03:12:00,
2013-03-31 20:22:00,39.0,32.0,-100.00,West,279,0.0,10.0,77,0.00,,,0.00,10.000000,,2013-04-01 03:22:00,
2013-03-31 20:33:00,39.0,32.0,-100.00,West,279,0.0,10.0,77,0.00,,,0.00,10.000000,,2013-04-01 03:33:00,
2013-03-31 21:02:00,39.0,33.0,-100.00,SSW,199,0.0,7.0,78,0.00,,,0.00,0.000000,,2013-04-01 04:02:00,
2013-03-31 21:13:00,39.0,33.0,-100.00,SSW,199,0.0,7.0,78,0.00,,,0.00,0.000000,,2013-04-01 04:13:00,
2013-03-31 21:23:00,39.0,33.0,-100.00,SSW,199,0.0,7.0,78,0.00,,,0.00,0.000000,,2013-04-01 04:23:00,
2013-03-31 21:32:00,39.0,33.0,-100.00,SSW,199,0.0,7.0,78,0.00,,,0.00,0.000000,,2013-04-01 04:32:00,
2013-03-31 22:02:00,37.0,32.0,-100.00,SSW,193,0.0,6.0,81,0.00,,,0.00,0.000000,,2013-04-01 05:02:00,
2013-03-31 22:12:00,37.0,32.0,-100.00,SSW,193,0.0,6.0,81,0.00,,,0.00,0.000000,,2013-04-01 05:12:00,
2013-03-31 22:22:00,37.0,32.0,-100.00,SSW,193,0.0,6.0,81,0.00,,,0.00,0.000000,,2013-04-01 05:22:00,
2013-03-31 22:32:00,37.0,32.0,-100.00,SSW,193,0.0,6.0,81,0.00,,,0.00,0.000000,,2013-04-01 05:32:00,
2013-03-31 23:02:00,33.0,30.0,-100.00,West,264,0.0,6.0,89,0.00,,,0.00,0.000000,,2013-04-01 06:02:00,
2013-03-31 23:12:00,33.0,30.0,-100.00,West,264,0.0,6.0,89,0.00,,,0.00,0.000000,,2013-04-01 06:12:00,
2013-03-31 23:22:00,33.0,30.0,-100.00,West,264,0.0,6.0,89,0.00,,,0.00,0.000000,,2013-04-01 06:22:00,
2013-03-31 23:33:00,33.0,30.0,-100.00,West,264,0.0,6.0,89,0.00,,,0.00,0.000000,,2013-04-01 06:33:00,